• Join FlightAware (Why Join?)
  • Login
  • US Flag 
08:01PM EDT


 

Airport Tracker/Info


-or-


 

Live Flight TrackerFlight Track Log ✈ AWE1809 ✈ 06-May-2012 ✈ KCLT - KRSW

Flight Track Log - Related Links

Times and Time Zones

All times are in EDT time to prevent confusion due to time zone crossing. See the AWE1809 flight status page for this flight to view local times or setup timezone preferences in your user account.

Time Position Orientation Groundspeed Altitude Reporting Facility
EDT Latitude Longitude Course Direction KTS MPH feet Rate Location/Type
12:08PM 35.1551 -80.9184 347° North  Level FlightAware Approximate
12:08PM 35.2306 -80.9392 139° Southeast 169 194 1,600  Level Atlanta Center
12:13PM 35.1086 -80.8111 190° South 312 359 12,200 2,160 Climbing FAA TRACON SMA TRACON (SMA)
12:13PM 35.0517 -80.8231 189° South 330 380 13,400 1,920 Climbing FAA TRACON SMA TRACON (SMA)
12:14PM 35.0003 -80.8333 360° North 340 391 14,800 1,020 Climbing FAA TRACON SMA TRACON (SMA)
12:15PM 35.0003 -80.8333 190° South 340 391 14,800 1,980 Level FAA TRACON SMA TRACON (SMA)
12:17PM 34.6844 -80.8981 177° South 378 435 20,800 2,280 Climbing Jacksonville Center
12:18PM 34.5903 -80.8925 180° South 378 435 22,400 1,080 Climbing Jacksonville Center
12:19PM 34.4819 -80.8925 193° South 392 451 23,000 960 Climbing Jacksonville Center
12:20PM 34.3719 -80.9228 191° South 392 451 24,400 1,440 Climbing Jacksonville Center
12:21PM 34.2700 -80.9478 192° South 384 442 25,900 1,320 Climbing Jacksonville Center
12:22PM 34.1597 -80.9753 193° South 389 448 27,100 1,080 Climbing Jacksonville Center
12:23PM 34.0497 -81.0053 193° South 402 463 28,100 1,200 Climbing Jacksonville Center
12:24PM 33.9333 -81.0378 187° South 413 475 29,600 1,260 Climbing Jacksonville Center
12:25PM 33.8189 -81.0553 181° South 424 488 30,700 1,320 Climbing Jacksonville Center
12:26PM 33.7042 -81.0575 180° South 430 495 32,300 1,380 Climbing Jacksonville Center
12:27PM 33.5769 -81.0578 181° South 416 479 33,500 840 Climbing Jacksonville Center
12:28PM 33.4619 -81.0603 182° South 416 479 34,000 240 Climbing Jacksonville Center
12:29PM 33.3494 -81.0650 180° South 416 479 34,000  Level Jacksonville Center
12:30PM 33.2347 -81.0647 180° South 416 479 34,000  Level Jacksonville Center
12:31PM 33.1200 -81.0647 182° South 416 479 34,000 300 Level Jacksonville Center
12:32PM 33.0072 -81.0694 181° South 416 479 34,600 600 Climbing Jacksonville Center
12:33PM 32.8944 -81.0717 180° South 416 479 35,300 600 Climbing Jacksonville Center
12:34PM 32.7819 -81.0717 181° South 416 479 35,800 300 Climbing Jacksonville Center
12:35PM 32.6794 -81.0736 180° South 416 479 36,000 60 Climbing Jacksonville Center
12:36PM 32.5586 -81.0736 180° South 400 460 36,000  Level Jacksonville Center
12:37PM 32.4561 -81.0731 181° South 406 467 36,000  Level Jacksonville Center
12:38PM 32.3267 -81.0758 181° South 412 474 36,000  Level Jacksonville Center
12:39PM 32.2142 -81.0781 180° South 412 474 36,000  Level Jacksonville Center
12:40PM 32.0992 -81.0778 181° South 412 474 36,000  Level Jacksonville Center
12:41PM 31.9844 -81.0800 181° South 412 474 36,000  Level Jacksonville Center
12:42PM 31.8758 -81.0822 180° South 394 453 36,000  Level Jacksonville Center
12:43PM 31.7758 -81.0817 181° South 399 459 36,000  Level Jacksonville Center
12:44PM 31.6506 -81.0842 181° South 404 465 36,000  Level Jacksonville Center
12:45PM 31.5397 -81.0864 180° South 399 459 36,000  Level Jacksonville Center
12:46PM 31.4375 -81.0858 180° South 404 465 36,000  Level Jacksonville Center
12:47PM 31.3122 -81.0858 179° South 404 465 36,000  Level Jacksonville Center
12:48PM 31.1953 -81.0833 183° South 404 465 36,000  Level Jacksonville Center
12:49PM 31.0847 -81.0903 180° South 404 465 36,000  Level Jacksonville Center
12:50PM 30.9719 -81.0900 181° South 404 465 36,000  Level Jacksonville Center
12:51PM 30.8572 -81.0922 181° South 409 471 36,000  Level Jacksonville Center
12:52PM 30.7467 -81.0942 181° South 404 465 36,000  Level Jacksonville Center
12:53PM 30.6358 -81.0964 181° South 399 459 36,000  Level Jacksonville Center
12:54PM 30.5233 -81.0983 181° South 404 465 36,000  Level Jacksonville Center
12:55PM 30.4106 -81.1006 180° South 404 465 36,000  Level Jacksonville Center
12:56PM 30.2997 -81.1003 181° South 404 465 36,000  Level Jacksonville Center
12:57PM 30.1872 -81.1022 181° South 404 465 36,000  Level Jacksonville Center
12:58PM 30.0722 -81.1044 181° South 404 465 36,000  Level Jacksonville Center
12:59PM 29.9597 -81.1067 173° South 404 465 36,000 -60 Level Jacksonville Center
01:00PM 29.8508 -81.0917 166° South 397 457 35,900 -60 Descending Jacksonville Center
01:01PM 29.7378 -81.0581 166° South 409 471 35,900  Level Jacksonville Center
01:03PM 29.5528 -81.0036 166° South 414 476 36,000  Climbing Miami Center
01:04PM 29.4392 -80.9708 165° South 414 476 36,000 -420 Level Miami Center
01:05PM 29.3294 -80.9381 168° South 414 476 35,200 -1,440 Descending Miami Center
01:06PM 29.2156 -80.9100 165° South 414 476 33,200 -2,100 Descending Miami Center
01:07PM 29.1039 -80.8750 165° South 414 476 31,000 -1,620 Descending Miami Center
01:08PM 28.9861 -80.8400 167° South 420 483 30,000 -540 Descending Miami Center
01:09PM 28.8847 -80.8125 167° South 425 489 30,000 -60 Level Miami Center
01:10PM 28.7542 -80.7772 167° South 432 497 29,900 -720 Descending Miami Center
01:11PM 28.6361 -80.7469 167° South 432 497 28,600 -1,380 Descending Miami Center
01:12PM 28.5200 -80.7169 165° South 432 497 27,200 -1,440 Descending Miami Center
01:13PM 28.4208 -80.6878 167° South 421 484 25,800 -1,500 Descending Miami Center
01:14PM 28.2903 -80.6525 168° South 426 490 24,200 -1,500 Descending Miami Center
01:15PM 28.1864 -80.6278 166° South 412 474 22,800 -1,500 Descending Miami Center
01:16PM 28.0850 -80.5986 167° South 393 452 21,300 -1,500 Descending Miami Center
01:17PM 27.9814 -80.5717 167° South 393 452 19,800 -1,500 Descending Miami Center
01:18PM 27.8797 -80.5450 166° South 388 447 18,300 -1,380 Descending Miami Center
01:19PM 27.7947 -80.5211 171° South 365 420 17,100 -1,200 Descending Miami Center
01:20PM 27.6867 -80.5011 215° Southwest 354 407 15,900 -600 Descending Miami Center
01:21PM 27.6164 -80.5575 223° Southwest 306 352 16,000  Climbing Miami Center
01:22PM 27.5519 -80.6256 223° Southwest 301 346 16,000  Level Miami Center
01:23PM 27.4961 -80.6847 223° Southwest 312 359 16,000  Level Miami Center
01:24PM 27.4297 -80.7550 223° Southwest 324 373 16,000 -60 Level Miami Center
01:25PM 27.3631 -80.8253 225° Southwest 331 381 15,900  Descending Miami Center
01:26PM 27.2942 -80.9022 222° Southwest 325 374 16,000 -60 Climbing Miami Center
01:27PM 27.2275 -80.9700 224° Southwest 325 374 15,800 -780 Descending Miami Center
01:28PM 27.1692 -81.0333 225° Southwest 325 374 14,500 -1,380 Descending Miami Center
01:29PM 27.1089 -81.1011 222° Southwest 325 374 13,100 -1,560 Descending Miami Center
01:30PM 27.0400 -81.1708 223° Southwest 308 354 11,400 -1,440 Descending Miami Center
01:31PM 26.9797 -81.2339 222° Southwest 301 346 10,300 -720 Descending Miami Center
01:32PM 26.9192 -81.2944 224° Southwest 301 346 10,000 -180 Descending Miami Center
01:33PM 26.8675 -81.3506 217° Southwest 301 346 10,000 -600 Level Miami Center
01:34PM 26.8031 -81.4042 216° Southwest 293 337 8,800 -1,980 Descending Miami Center
01:35PM 26.7347 -81.4594 231° Southwest 288 331 6,100 -2,400 Descending Miami Center
01:36PM 26.6867 -81.5250 231° Southwest 278 320 4,100 -2,040 Descending Miami Center